Rita Ann — WDG4670 — position and weather

sailwx.info

Track history (hours):
 
Tides and Currents Weather Stations Pressure Air Temp Water Temp Dewpoint Dewpoint Depression Visibility Wind Speed Wind Dir Waves Ship Positions

Rita Ann

Owner: D&S Marine Service, LLC, Houma, LA. More information available from US FCC via Universal Licensing System and Coast Guard Vessel Documentation Center.

Last reported at 2018-Jan-11 22:30 UTC. Time now 2018-Jan-18 16:13 UTC.
Position N 30°03' W 093°43'.

Length 205 m; draft 3 m.

Type: . MMSI: 367538940.

Date/timePositionNaut miles runAvg speedWind from/ knotsBaromVisibWave heightAir tempDewpointWater temp
2018-Jan-11 22:30N 30°03' W 093°43'2 3.9
2018-Jan-11 22:00N 30°04' W 093°40'2 4.0
2018-Jan-11 21:30N 30°04' W 093°38'2 4.0
2018-Jan-11 21:00N 30°04' W 093°36'2 4.0
2018-Jan-11 20:31N 30°04' W 093°33'2 4.1
2018-Jan-11 20:01N 30°04' W 093°31'2 4.1
2018-Jan-11 19:31N 30°04' W 093°29'2 4.1
2018-Jan-11 19:00N 30°04' W 093°26'2 4.0
2018-Jan-11 18:29N 30°04' W 093°24'1 2.1
2018-Jan-11 18:00N 30°04' W 093°23'0 0.0
2018-Jan-11 17:29N 30°04' W 093°23'2 1.0
2018-Jan-11 15:06N 30°05' W 093°20'0 2.6
2018-Jan-11 15:01N 30°05' W 093°20'1 2.8
2018-Jan-11 14:30N 30°06' W 093°19'0 0.1
2018-Jan-11 14:01N 30°06' W 093°19'0 0.1
2018-Jan-11 13:31N 30°06' W 093°19'0 0.1
2018-Jan-11 13:00N 30°06' W 093°19'0 0.0
2018-Jan-11 12:31N 30°06' W 093°19'0 0.0
2018-Jan-11 12:00N 30°06' W 093°19'0 0.0
2018-Jan-11 11:31N 30°06' W 093°19'0 0.0
2018-Jan-11 11:01N 30°06' W 093°19'0 0.0
2018-Jan-11 10:31N 30°06' W 093°19'0 0.0
2018-Jan-11 10:00N 30°06' W 093°19'1 1.6
2018-Jan-11 09:30N 30°06' W 093°18'1 2.1
2018-Jan-11 09:00N 30°05' W 093°17'1 1.2
2018-Jan-11 08:31N 30°05' W 093°17'0 0.0
2018-Jan-11 08:00N 30°05' W 093°17'0 0.0
2018-Jan-11 07:31N 30°05' W 093°17'0 0.0
2018-Jan-11 07:00N 30°05' W 093°17'0 0.0
2018-Jan-11 06:31N 30°05' W 093°17'0 0.0
2018-Jan-11 06:00N 30°05' W 093°17'0 0.0
2018-Jan-11 05:30N 30°05' W 093°17'0 0.0
2018-Jan-11 05:01N 30°05' W 093°17'0 0.0
2018-Jan-11 04:31N 30°05' W 093°17'0 0.0
2018-Jan-11 04:01N 30°05' W 093°17'0 0.0
2018-Jan-11 03:30N 30°05' W 093°17'0 0.0
2018-Jan-11 03:00N 30°05' W 093°17'0 0.0
2018-Jan-11 02:30N 30°05' W 093°17'0 0.0
2018-Jan-11 02:01N 30°05' W 093°17'0 0.0
2018-Jan-11 01:31N 30°05' W 093°17'0 0.0
2018-Jan-11 01:00N 30°05' W 093°17'0 0.0
2018-Jan-11 00:31N 30°05' W 093°17'0 0.0
2018-Jan-11 00:00N 30°05' W 093°17'0 0.0
2018-Jan-10 23:30N 30°05' W 093°17'0 0.0
2018-Jan-10 23:01N 30°05' W 093°17'0 0.0
2018-Jan-10 22:30N 30°05' W 093°17'0 0.0
2018-Jan-10 22:01N 30°05' W 093°17'0 0.0
2018-Jan-10 21:31N 30°05' W 093°17'0 0.0
2018-Jan-10 21:00N 30°05' W 093°17'0 0.0
2018-Jan-10 20:31N 30°05' W 093°17'0 0.0
2018-Jan-10 20:01N 30°05' W 093°17'0 0.0
2018-Jan-10 19:30N 30°05' W 093°17'0 0.0
2018-Jan-10 19:00N 30°05' W 093°17'0 0.0
2018-Jan-10 18:30N 30°05' W 093°17'0 0.0
2018-Jan-10 18:01N 30°05' W 093°17'0 0.0
2018-Jan-10 17:30N 30°05' W 093°17'0 0.0
2018-Jan-10 17:01N 30°05' W 093°17'0 0.0
2018-Jan-10 16:30N 30°05' W 093°17'0 0.0
2018-Jan-10 16:00N 30°05' W 093°17'0 0.0
2018-Jan-10 15:30N 30°05' W 093°17'0 0.3
2018-Jan-10 15:00N 30°05' W 093°17'0 0.1
2018-Jan-10 14:30N 30°05' W 093°17'0 0.2
2018-Jan-10 14:01N 30°05' W 093°17'1 1.5
2018-Jan-10 13:31N 30°04' W 093°16'2 3.8
2018-Jan-10 13:00N 30°02' W 093°15'2 3.6
2018-Jan-10 12:31N 30°01' W 093°14'2 3.6
2018-Jan-10 12:00N 29°59' W 093°13'2 3.9
2018-Jan-10 11:31N 29°58' W 093°11'2 3.9
2018-Jan-10 11:01N 29°56' W 093°10'2 3.7
2018-Jan-10 10:22N 29°56' W 093°07'40 3.6
2018-Jan-09 23:18N 29°51' W 092°22'1 3.6
2018-Jan-09 22:57N 29°51' W 092°20'2 3.7
2018-Jan-09 22:29N 29°50' W 092°18'2 3.4
2018-Jan-09 22:01N 29°49' W 092°17'2 3.7
2018-Jan-09 21:31N 29°48' W 092°15'2 4.0
2018-Jan-09 21:01N 29°47' W 092°13'2 3.7
2018-Jan-09 20:30N 29°47' W 092°11'2 3.5
2018-Jan-09 20:00N 29°47' W 092°09'2 3.7
2018-Jan-09 19:31N 29°47' W 092°07'2 3.8
2018-Jan-09 19:01N 29°48' W 092°05'2 3.7
2018-Jan-09 18:31N 29°49' W 092°03'2 3.6
2018-Jan-09 18:00N 29°49' W 092°01'  
2018-Jan-06 07:54N 29°51' W 091°55'3 4.5
2018-Jan-06 07:18N 29°50' W 091°58'1 4.4
2018-Jan-06 07:00N 29°50' W 091°59'2 4.5
2018-Jan-06 06:31N 29°49' W 092°02'2 4.5
2018-Jan-06 06:00N 29°48' W 092°04'2 4.6
2018-Jan-06 05:30N 29°48' W 092°06'2 4.5
2018-Jan-06 05:00N 29°47' W 092°09'2 4.1
2018-Jan-06 04:30N 29°47' W 092°11'1 2.7
2018-Jan-06 04:00N 29°47' W 092°13'1 2.4
2018-Jan-06 03:30N 29°48' W 092°14'0 0.0
2018-Jan-06 03:01N 29°48' W 092°14'0 0.9
2018-Jan-06 02:31N 29°48' W 092°14'2 4.6
2018-Jan-06 02:01N 29°49' W 092°17'2 4.1
2018-Jan-06 01:30N 29°50' W 092°19'3 4.3
2018-Jan-06 00:52N 29°51' W 092°22'38 4.2
2018-Jan-05 15:47N 29°56' W 093°05'0 0.9
2018-Jan-05 15:30N 29°56' W 093°05'1 1.1
2018-Jan-05 15:00N 29°56' W 093°06'0 0.0
2018-Jan-05 14:31N 29°56' W 093°06'0 0.4
2018-Jan-05 13:59N 29°56' W 093°06'0 0.4
2018-Jan-05 13:30N 29°56' W 093°06'1 1.4
2018-Jan-05 13:01N 29°56' W 093°07'2 3.2
2018-Jan-05 12:31N 29°56' W 093°09'2 3.0
2018-Jan-05 12:00N 29°57' W 093°10'2 3.4
2018-Jan-05 11:30N 29°58' W 093°11'2 3.3
2018-Jan-05 11:00N 29°59' W 093°13'2 3.4
2018-Jan-05 10:31N 30°01' W 093°14'2 3.2
2018-Jan-05 10:01N 30°02' W 093°15'2 3.1
2018-Jan-05 09:30N 30°03' W 093°16'2 3.9
2018-Jan-05 09:01N 30°05' W 093°17'1 2.3
2018-Jan-05 08:30N 30°06' W 093°18'0 0.5
2018-Jan-05 08:00N 30°06' W 093°18'0 0.0
2018-Jan-05 07:30N 30°06' W 093°18'0 0.0
2018-Jan-05 07:00N 30°06' W 093°18'0 0.0
2018-Jan-05 06:31N 30°06' W 093°18'0 0.0
2018-Jan-05 06:00N 30°06' W 093°18'1 1.4
2018-Jan-05 05:31N 30°06' W 093°19'2 3.4
2018-Jan-05 05:01N 30°05' W 093°20'2 3.3
2018-Jan-05 04:31N 30°04' W 093°22'1 2.4
2018-Jan-05 04:00N 30°04' W 093°23'0 0.2
2018-Jan-05 03:30N 30°04' W 093°23'1 2.1
2018-Jan-05 03:01N 30°04' W 093°22'1 1.2
2018-Jan-05 02:31N 30°04' W 093°22'1 1.1
2018-Jan-05 02:01N 30°04' W 093°23'0 0.1
2018-Jan-05 01:30N 30°04' W 093°23'2 3.1
2018-Jan-05 01:01N 30°04' W 093°25'2 4.0
2018-Jan-05 00:31N 30°04' W 093°27'2 4.0
2018-Jan-05 00:01N 30°04' W 093°29'2 4.0
2018-Jan-04 23:30N 30°04' W 093°32'2 4.1
2018-Jan-04 22:58N 30°04' W 093°34'2 3.5
2018-Jan-04 22:30N 30°04' W 093°36'2 4.3
2018-Jan-04 22:01N 30°04' W 093°39'  
Track history (hours):
 
Tides and Currents Weather Stations Pressure Air Temp Water Temp Dewpoint Dewpoint Depression Visibility Wind Speed Wind Dir Waves Ship Positions

Rita Ann

Owner: D&S Marine Service, LLC, Houma, LA. More information available from US FCC via Universal Licensing System and Coast Guard Vessel Documentation Center.

Last reported at 2018-Jan-11 22:30 UTC. Time now 2018-Jan-18 16:13 UTC.
Position N 30°03' W 093°43'.

Length 205 m; draft 3 m.

Type: . MMSI: 367538940.

Date/timePositionNaut miles runAvg speedWind from/ knotsBaromVisibWave heightAir tempDewpointWater temp
2018-Jan-11 22:30N 30°03' W 093°43'2 3.9
2018-Jan-11 22:00N 30°04' W 093°40'2 4.0
2018-Jan-11 21:30N 30°04' W 093°38'2 4.0
2018-Jan-11 21:00N 30°04' W 093°36'2 4.0
2018-Jan-11 20:31N 30°04' W 093°33'2 4.1
2018-Jan-11 20:01N 30°04' W 093°31'2 4.1
2018-Jan-11 19:31N 30°04' W 093°29'2 4.1
2018-Jan-11 19:00N 30°04' W 093°26'2 4.0
2018-Jan-11 18:29N 30°04' W 093°24'1 2.1
2018-Jan-11 18:00N 30°04' W 093°23'0 0.0
2018-Jan-11 17:29N 30°04' W 093°23'2 1.0
2018-Jan-11 15:06N 30°05' W 093°20'0 2.6
2018-Jan-11 15:01N 30°05' W 093°20'1 2.8
2018-Jan-11 14:30N 30°06' W 093°19'0 0.1
2018-Jan-11 14:01N 30°06' W 093°19'0 0.1
2018-Jan-11 13:31N 30°06' W 093°19'0 0.1
2018-Jan-11 13:00N 30°06' W 093°19'0 0.0
2018-Jan-11 12:31N 30°06' W 093°19'0 0.0
2018-Jan-11 12:00N 30°06' W 093°19'0 0.0
2018-Jan-11 11:31N 30°06' W 093°19'0 0.0
2018-Jan-11 11:01N 30°06' W 093°19'0 0.0
2018-Jan-11 10:31N 30°06' W 093°19'0 0.0
2018-Jan-11 10:00N 30°06' W 093°19'1 1.6
2018-Jan-11 09:30N 30°06' W 093°18'1 2.1
2018-Jan-11 09:00N 30°05' W 093°17'1 1.2
2018-Jan-11 08:31N 30°05' W 093°17'0 0.0
2018-Jan-11 08:00N 30°05' W 093°17'0 0.0
2018-Jan-11 07:31N 30°05' W 093°17'0 0.0
2018-Jan-11 07:00N 30°05' W 093°17'0 0.0
2018-Jan-11 06:31N 30°05' W 093°17'0 0.0
2018-Jan-11 06:00N 30°05' W 093°17'0 0.0
2018-Jan-11 05:30N 30°05' W 093°17'0 0.0
2018-Jan-11 05:01N 30°05' W 093°17'0 0.0
2018-Jan-11 04:31N 30°05' W 093°17'0 0.0
2018-Jan-11 04:01N 30°05' W 093°17'0 0.0
2018-Jan-11 03:30N 30°05' W 093°17'0 0.0
2018-Jan-11 03:00N 30°05' W 093°17'0 0.0
2018-Jan-11 02:30N 30°05' W 093°17'0 0.0
2018-Jan-11 02:01N 30°05' W 093°17'0 0.0
2018-Jan-11 01:31N 30°05' W 093°17'0 0.0
2018-Jan-11 01:00N 30°05' W 093°17'0 0.0
2018-Jan-11 00:31N 30°05' W 093°17'0 0.0
2018-Jan-11 00:00N 30°05' W 093°17'0 0.0
2018-Jan-10 23:30N 30°05' W 093°17'0 0.0
2018-Jan-10 23:01N 30°05' W 093°17'0 0.0
2018-Jan-10 22:30N 30°05' W 093°17'0 0.0
2018-Jan-10 22:01N 30°05' W 093°17'0 0.0
2018-Jan-10 21:31N 30°05' W 093°17'0 0.0
2018-Jan-10 21:00N 30°05' W 093°17'0 0.0
2018-Jan-10 20:31N 30°05' W 093°17'0 0.0
2018-Jan-10 20:01N 30°05' W 093°17'0 0.0
2018-Jan-10 19:30N 30°05' W 093°17'0 0.0
2018-Jan-10 19:00N 30°05' W 093°17'0 0.0
2018-Jan-10 18:30N 30°05' W 093°17'0 0.0
2018-Jan-10 18:01N 30°05' W 093°17'0 0.0
2018-Jan-10 17:30N 30°05' W 093°17'0 0.0
2018-Jan-10 17:01N 30°05' W 093°17'0 0.0
2018-Jan-10 16:30N 30°05' W 093°17'0 0.0
2018-Jan-10 16:00N 30°05' W 093°17'0 0.0
2018-Jan-10 15:30N 30°05' W 093°17'0 0.3
2018-Jan-10 15:00N 30°05' W 093°17'0 0.1
2018-Jan-10 14:30N 30°05' W 093°17'0 0.2
2018-Jan-10 14:01N 30°05' W 093°17'1 1.5
2018-Jan-10 13:31N 30°04' W 093°16'2 3.8
2018-Jan-10 13:00N 30°02' W 093°15'2 3.6
2018-Jan-10 12:31N 30°01' W 093°14'2 3.6
2018-Jan-10 12:00N 29°59' W 093°13'2 3.9
2018-Jan-10 11:31N 29°58' W 093°11'2 3.9
2018-Jan-10 11:01N 29°56' W 093°10'2 3.7
2018-Jan-10 10:22N 29°56' W 093°07'40 3.6
2018-Jan-09 23:18N 29°51' W 092°22'1 3.6
2018-Jan-09 22:57N 29°51' W 092°20'2 3.7
2018-Jan-09 22:29N 29°50' W 092°18'2 3.4
2018-Jan-09 22:01N 29°49' W 092°17'2 3.7
2018-Jan-09 21:31N 29°48' W 092°15'2 4.0
2018-Jan-09 21:01N 29°47' W 092°13'2 3.7
2018-Jan-09 20:30N 29°47' W 092°11'2 3.5
2018-Jan-09 20:00N 29°47' W 092°09'2 3.7
2018-Jan-09 19:31N 29°47' W 092°07'2 3.8
2018-Jan-09 19:01N 29°48' W 092°05'2 3.7
2018-Jan-09 18:31N 29°49' W 092°03'2 3.6
2018-Jan-09 18:00N 29°49' W 092°01'  
2018-Jan-06 07:54N 29°51' W 091°55'3 4.5
2018-Jan-06 07:18N 29°50' W 091°58'1 4.4
2018-Jan-06 07:00N 29°50' W 091°59'2 4.5
2018-Jan-06 06:31N 29°49' W 092°02'2 4.5
2018-Jan-06 06:00N 29°48' W 092°04'2 4.6
2018-Jan-06 05:30N 29°48' W 092°06'2 4.5
2018-Jan-06 05:00N 29°47' W 092°09'2 4.1
2018-Jan-06 04:30N 29°47' W 092°11'1 2.7
2018-Jan-06 04:00N 29°47' W 092°13'1 2.4
2018-Jan-06 03:30N 29°48' W 092°14'0 0.0
2018-Jan-06 03:01N 29°48' W 092°14'0 0.9
2018-Jan-06 02:31N 29°48' W 092°14'2 4.6
2018-Jan-06 02:01N 29°49' W 092°17'2 4.1
2018-Jan-06 01:30N 29°50' W 092°19'3 4.3
2018-Jan-06 00:52N 29°51' W 092°22'38 4.2
2018-Jan-05 15:47N 29°56' W 093°05'0 0.9
2018-Jan-05 15:30N 29°56' W 093°05'1 1.1
2018-Jan-05 15:00N 29°56' W 093°06'0 0.0
2018-Jan-05 14:31N 29°56' W 093°06'0 0.4
2018-Jan-05 13:59N 29°56' W 093°06'0 0.4
2018-Jan-05 13:30N 29°56' W 093°06'1 1.4
2018-Jan-05 13:01N 29°56' W 093°07'2 3.2
2018-Jan-05 12:31N 29°56' W 093°09'2 3.0
2018-Jan-05 12:00N 29°57' W 093°10'2 3.4
2018-Jan-05 11:30N 29°58' W 093°11'2 3.3
2018-Jan-05 11:00N 29°59' W 093°13'2 3.4
2018-Jan-05 10:31N 30°01' W 093°14'2 3.2
2018-Jan-05 10:01N 30°02' W 093°15'2 3.1
2018-Jan-05 09:30N 30°03' W 093°16'2 3.9
2018-Jan-05 09:01N 30°05' W 093°17'1 2.3
2018-Jan-05 08:30N 30°06' W 093°18'0 0.5
2018-Jan-05 08:00N 30°06' W 093°18'0 0.0
2018-Jan-05 07:30N 30°06' W 093°18'0 0.0
2018-Jan-05 07:00N 30°06' W 093°18'0 0.0
2018-Jan-05 06:31N 30°06' W 093°18'0 0.0
2018-Jan-05 06:00N 30°06' W 093°18'1 1.4
2018-Jan-05 05:31N 30°06' W 093°19'2 3.4
2018-Jan-05 05:01N 30°05' W 093°20'2 3.3
2018-Jan-05 04:31N 30°04' W 093°22'1 2.4
2018-Jan-05 04:00N 30°04' W 093°23'0 0.2
2018-Jan-05 03:30N 30°04' W 093°23'1 2.1
2018-Jan-05 03:01N 30°04' W 093°22'1 1.2
2018-Jan-05 02:31N 30°04' W 093°22'1 1.1
2018-Jan-05 02:01N 30°04' W 093°23'0 0.1
2018-Jan-05 01:30N 30°04' W 093°23'2 3.1
2018-Jan-05 01:01N 30°04' W 093°25'2 4.0
2018-Jan-05 00:31N 30°04' W 093°27'2 4.0
2018-Jan-05 00:01N 30°04' W 093°29'2 4.0
2018-Jan-04 23:30N 30°04' W 093°32'2 4.1
2018-Jan-04 22:58N 30°04' W 093°34'2 3.5
2018-Jan-04 22:30N 30°04' W 093°36'2 4.3
2018-Jan-04 22:01N 30°04' W 093°39'  

Dump ship's entire track history